Time;durP1;ratioP1;P1;durP2;ratioP2;P2;SDS_P1;SDS_P2;PMS_P1;PMS_P2;Temp;Humidity;BMP_temperature;BMP_pressure;BME280_temperature;BME280_humidity;BME280_pressure;Samples;Min_cycle;Max_cycle;Signal;HPM_P1;HPM_P2
2023/04/08 00:00:21;;;;;;;;;;;9.90;99.90;;;;;;5057664;28;20312;-68
2023/04/08 00:02:47;;;;;;;;;;;10.00;99.90;;;;;;5056983;28;20019;-69
2023/04/08 00:05:12;;;;;;;;;;;10.10;99.90;;;;;;5057635;28;19912;-67
2023/04/08 00:07:37;;;;;;;;;;;10.00;99.90;;;;;;5039175;28;19924;-68
2023/04/08 00:10:03;;;;;;;;;;;9.90;99.90;;;;;;5057655;28;19942;-68
2023/04/08 00:12:29;;;;;;;;;;;9.90;99.90;;;;;;5039441;28;19905;-68
2023/04/08 00:14:54;;;;;;;;;;;9.80;99.90;;;;;;5057419;28;19905;-68
2023/04/08 00:17:20;;;;;;;;;;;9.90;99.90;;;;;;5039149;28;19905;-69
2023/04/08 00:19:45;;;;;;;;;;;9.80;99.90;;;;;;5057212;28;19905;-68
2023/04/08 00:22:11;;;;;;;;;;;9.70;99.90;;;;;;5039158;28;20000;-69
2023/04/08 00:24:36;;;;;;;;;;;9.80;99.90;;;;;;5057168;28;19904;-68
2023/04/08 00:27:02;;;;;;;;;;;9.80;99.90;;;;;;5056671;28;19912;-68
2023/04/08 00:29:28;;;;;;;;;;;9.80;99.90;;;;;;5057091;28;19916;-68
2023/04/08 00:31:53;;;;;;;;;;;9.60;99.90;;;;;;5057367;28;19905;-68
2023/04/08 00:34:19;;;;;;;;;;;9.70;99.90;;;;;;5056400;28;19912;-68
2023/04/08 00:36:45;;;;;;;;;;;9.90;99.90;;;;;;5056856;28;19905;-68
2023/04/08 00:39:11;;;;;;;;;;;9.90;99.90;;;;;;5056896;28;20337;-68
2023/04/08 00:41:36;;;;;;;;;;;9.80;99.90;;;;;;5056493;28;19908;-68
2023/04/08 00:44:02;;;;;;;;;;;9.80;99.90;;;;;;5056451;28;20281;-68
2023/04/08 00:46:27;;;;;;;;;;;9.80;99.90;;;;;;5038427;28;19913;-69
2023/04/08 00:48:53;;;;;;;;;;;9.80;99.90;;;;;;5056294;28;19912;-68
2023/04/08 00:51:19;;;;;;;;;;;9.90;99.90;;;;;;5038335;28;20007;-68
2023/04/08 00:53:44;;;;;;;;;;;9.90;99.90;;;;;;5038387;28;19987;-68
2023/04/08 00:56:10;;;;;;;;;;;9.90;99.90;;;;;;5056478;28;19957;-68
2023/04/08 00:58:36;;;;;;;;;;;9.90;99.90;;;;;;5056549;28;20357;-69
2023/04/08 01:01:24;;;;;;;;;;;9.90;99.90;;;;;;5037026;28;19958;-68
2023/04/08 01:03:59;;;;;;;;;;;9.80;99.90;;;;;;5047634;28;19905;-68
2023/04/08 01:06:31;;;;;;;;;;;9.90;99.90;;;;;;5056063;28;19939;-68
2023/04/08 01:08:58;;;;;;;;;;;10.00;99.90;;;;;;5038103;28;19966;-68
2023/04/08 01:11:25;;;;;;;;;;;10.00;99.90;;;;;;5056417;28;19908;-68
2023/04/08 01:13:51;;;;;;;;;;;10.10;99.90;;;;;;5056251;28;19912;-68
2023/04/08 01:16:17;;;;;;;;;;;10.10;99.90;;;;;;5058040;28;20068;-68
2023/04/08 01:18:43;;;;;;;;;;;10.10;99.90;;;;;;5039260;28;19909;-68
2023/04/08 01:21:10;;;;;;;;;;;10.20;99.90;;;;;;5056355;28;19999;-68
2023/04/08 01:23:39;;;;;;;;;;;10.30;99.90;;;;;;5056355;28;19905;-69
2023/04/08 01:26:05;;;;;;;;;;;10.30;99.90;;;;;;5056101;28;19956;-68
2023/04/08 01:28:31;;;;;;;;;;;10.20;99.90;;;;;;5038681;28;19933;-66
2023/04/08 01:30:58;;;;;;;;;;;10.30;99.90;;;;;;5055997;28;19905;-66
2023/04/08 01:33:24;;;;;;;;;;;10.20;99.90;;;;;;5055429;28;19904;-66
2023/04/08 01:35:50;;;;;;;;;;;10.20;99.90;;;;;;5055652;28;19904;-66
2023/04/08 01:38:17;;;;;;;;;;;10.30;99.90;;;;;;5055861;28;19952;-67
2023/04/08 01:40:43;;;;;;;;;;;10.20;99.90;;;;;;5056124;28;19915;-66
2023/04/08 01:43:09;;;;;;;;;;;10.10;99.90;;;;;;5055448;28;19904;-66
2023/04/08 01:45:35;;;;;;;;;;;10.20;99.90;;;;;;5055363;28;20289;-66
2023/04/08 01:48:01;;;;;;;;;;;10.30;99.90;;;;;;5055104;28;19913;-67
2023/04/08 01:50:27;;;;;;;;;;;10.30;99.90;;;;;;5055459;28;20424;-66
2023/04/08 01:52:53;;;;;;;;;;;10.20;99.90;;;;;;5055481;28;19904;-67
2023/04/08 01:55:19;;;;;;;;;;;10.30;99.90;;;;;;5055355;28;20280;-66
2023/04/08 01:57:47;;;;;;;;;;;10.30;99.90;;;;;;5055379;28;19909;-66
2023/04/08 02:00:14;;;;;;;;;;;10.30;99.90;;;;;;5055130;28;19951;-67
2023/04/08 02:02:41;;;;;;;;;;;10.20;99.90;;;;;;5054633;28;20369;-66
2023/04/08 02:05:07;;;;;;;;;;;10.20;99.90;;;;;;5037177;28;19905;-66
2023/04/08 02:07:32;;;;;;;;;;;10.20;99.90;;;;;;5054787;28;19916;-66
2023/04/08 02:09:58;;;;;;;;;;;10.20;99.90;;;;;;5054845;28;19927;-67
2023/04/08 02:12:25;;;;;;;;;;;10.40;99.90;;;;;;5036798;28;20234;-67
2023/04/08 02:14:50;;;;;;;;;;;10.40;99.90;;;;;;5054828;28;19954;-67
2023/04/08 02:17:20;;;;;;;;;;;10.50;99.90;;;;;;5054392;28;20276;-66
2023/04/08 02:20:03;;;;;;;;;;;10.50;99.90;;;;;;5055069;28;19904;-66
2023/04/08 02:22:35;;;;;;;;;;;10.50;99.90;;;;;;5054476;28;19951;-66
2023/04/08 02:25:02;;;;;;;;;;;10.40;99.90;;;;;;5054755;28;20250;-66
2023/04/08 02:27:28;;;;;;;;;;;10.40;99.90;;;;;;5054401;28;19940;-67
2023/04/08 02:29:54;;;;;;;;;;;10.30;99.90;;;;;;5054910;28;20273;-66
2023/04/08 02:32:22;;;;;;;;;;;10.20;99.90;;;;;;5054296;28;19904;-67
2023/04/08 02:34:47;;;;;;;;;;;10.30;99.90;;;;;;5054493;28;19971;-67
2023/04/08 02:37:13;;;;;;;;;;;10.20;99.90;;;;;;5054565;28;19963;-67
2023/04/08 02:39:38;;;;;;;;;;;10.10;99.90;;;;;;5054317;28;19959;-67
2023/04/08 02:42:04;;;;;;;;;;;10.10;99.90;;;;;;5054373;28;19905;-67
2023/04/08 02:44:30;;;;;;;;;;;10.10;99.90;;;;;;5054385;28;19968;-67
2023/04/08 02:46:55;;;;;;;;;;;10.20;99.90;;;;;;5054207;28;19944;-67
2023/04/08 02:49:21;;;;;;;;;;;10.20;99.90;;;;;;5054035;28;19913;-67
2023/04/08 02:51:46;;;;;;;;;;;10.30;99.90;;;;;;5054702;28;19905;-67
2023/04/08 02:54:12;;;;;;;;;;;10.20;99.90;;;;;;5054455;28;19955;-67
2023/04/08 02:56:37;;;;;;;;;;;10.30;99.90;;;;;;5054207;28;20366;-66
2023/04/08 02:59:03;;;;;;;;;;;10.30;99.90;;;;;;5054180;28;19904;-66
2023/04/08 03:01:29;;;;;;;;;;;10.10;99.90;;;;;;5054383;28;19904;-66
2023/04/08 03:03:55;;;;;;;;;;;10.00;99.90;;;;;;5053939;28;19905;-67
2023/04/08 03:06:20;;;;;;;;;;;10.20;99.90;;;;;;5036023;28;19915;-66
2023/04/08 03:08:45;;;;;;;;;;;10.10;99.90;;;;;;5036098;28;19994;-66
2023/04/08 03:11:11;;;;;;;;;;;10.10;99.90;;;;;;5053844;28;19905;-66
2023/04/08 03:13:36;;;;;;;;;;;10.10;99.90;;;;;;5053899;28;19913;-68
2023/04/08 03:16:02;;;;;;;;;;;10.20;99.90;;;;;;5054161;28;19911;-66
2023/04/08 03:18:27;;;;;;;;;;;10.20;99.90;;;;;;5053687;28;19952;-66
2023/04/08 03:20:53;;;;;;;;;;;10.10;99.90;;;;;;5053959;28;19911;-67
2023/04/08 03:23:18;;;;;;;;;;;10.10;99.90;;;;;;5053174;28;19905;-67
2023/04/08 03:25:44;;;;;;;;;;;10.00;99.90;;;;;;5053486;28;19916;-67
2023/04/08 03:28:09;;;;;;;;;;;10.10;99.90;;;;;;5053587;28;20379;-66
2023/04/08 03:30:35;;;;;;;;;;;10.10;99.90;;;;;;5053831;28;19904;-67
2023/04/08 03:33:02;;;;;;;;;;;10.00;99.90;;;;;;5035244;28;19959;-67
2023/04/08 03:35:27;;;;;;;;;;;10.10;99.90;;;;;;5035424;28;20004;-67
2023/04/08 03:37:54;;;;;;;;;;;10.00;99.90;;;;;;5053981;28;19905;-67
2023/04/08 03:40:19;;;;;;;;;;;10.00;99.90;;;;;;5053347;28;19911;-67
2023/04/08 03:42:45;;;;;;;;;;;10.00;99.90;;;;;;5054043;28;19904;-67
2023/04/08 03:45:10;;;;;;;;;;;10.20;99.90;;;;;;5053389;28;19952;-66
2023/04/08 03:47:36;;;;;;;;;;;10.10;99.90;;;;;;5053349;28;19909;-66
2023/04/08 03:50:02;;;;;;;;;;;10.10;99.90;;;;;;5053259;28;19912;-67
2023/04/08 03:52:27;;;;;;;;;;;10.10;99.90;;;;;;5053644;28;19999;-66
2023/04/08 03:54:53;;;;;;;;;;;10.00;99.90;;;;;;5053462;28;19948;-66
2023/04/08 03:57:18;;;;;;;;;;;10.00;99.90;;;;;;5053630;28;19904;-67
2023/04/08 03:59:43;;;;;;;;;;;9.90;99.90;;;;;;5053589;28;19905;-67
2023/04/08 04:02:09;;;;;;;;;;;9.80;99.90;;;;;;5053464;28;19905;-66
2023/04/08 04:04:35;;;;;;;;;;;9.80;99.90;;;;;;5053327;28;19944;-67
2023/04/08 04:07:01;;;;;;;;;;;9.80;99.90;;;;;;5053109;28;19913;-67
2023/04/08 04:09:26;;;;;;;;;;;9.80;99.90;;;;;;5053376;28;20399;-67
2023/04/08 04:11:52;;;;;;;;;;;9.80;99.90;;;;;;5053513;28;20308;-66
2023/04/08 04:14:17;;;;;;;;;;;9.80;99.90;;;;;;5035550;28;19959;-66
2023/04/08 04:16:43;;;;;;;;;;;9.60;99.90;;;;;;5035213;28;20012;-67
2023/04/08 04:19:08;;;;;;;;;;;9.50;99.90;;;;;;5052931;28;19905;-67
2023/04/08 04:21:34;;;;;;;;;;;9.50;99.90;;;;;;5052993;28;19905;-67
2023/04/08 04:23:59;;;;;;;;;;;9.60;99.90;;;;;;5053382;28;19905;-67
2023/04/08 04:26:24;;;;;;;;;;;9.50;99.90;;;;;;5052921;28;20369;-66
2023/04/08 04:28:50;;;;;;;;;;;9.60;99.90;;;;;;5052907;28;20003;-67
2023/04/08 04:31:25;;;;;;;;;;;9.60;99.90;;;;;;5052888;28;19999;-67
2023/04/08 04:33:50;;;;;;;;;;;9.50;99.90;;;;;;5052970;28;19905;-67
2023/04/08 04:36:16;;;;;;;;;;;9.80;99.90;;;;;;5056445;28;19926;-67
2023/04/08 04:38:44;;;;;;;;;;;9.70;99.90;;;;;;5057833;28;19954;-66
2023/04/08 04:41:10;;;;;;;;;;;9.70;99.90;;;;;;5057168;28;19912;-67
2023/04/08 04:43:35;;;;;;;;;;;9.80;99.90;;;;;;5056905;28;19904;-66
2023/04/08 04:46:02;;;;;;;;;;;9.80;99.90;;;;;;5056973;28;19970;-66
2023/04/08 04:48:28;;;;;;;;;;;9.80;99.90;;;;;;5056639;28;19978;-67
2023/04/08 04:50:57;;;;;;;;;;;9.80;99.90;;;;;;5056428;28;20353;-67
2023/04/08 04:53:22;;;;;;;;;;;9.60;99.90;;;;;;5056731;28;19904;-66
2023/04/08 04:55:49;;;;;;;;;;;9.50;99.90;;;;;;5036943;28;20321;-67
2023/04/08 04:58:14;;;;;;;;;;;9.60;99.90;;;;;;5052001;28;20231;-66
2023/04/08 05:00:40;;;;;;;;;;;9.70;99.90;;;;;;5040759;28;19954;-66
2023/04/08 05:03:05;;;;;;;;;;;9.90;99.90;;;;;;5053253;28;20346;-67
2023/04/08 05:05:31;;;;;;;;;;;9.90;99.90;;;;;;5056260;28;20276;-67
2023/04/08 05:07:56;;;;;;;;;;;9.90;99.90;;;;;;5056178;28;19954;-66
2023/04/08 05:10:22;;;;;;;;;;;9.80;99.90;;;;;;5056011;28;20043;-67
2023/04/08 05:12:47;;;;;;;;;;;9.80;99.90;;;;;;5056736;28;19909;-66
2023/04/08 05:15:13;;;;;;;;;;;9.70;99.90;;;;;;5055949;28;19995;-67
2023/04/08 05:17:38;;;;;;;;;;;9.70;99.90;;;;;;5055942;28;19927;-67
2023/04/08 05:20:04;;;;;;;;;;;9.60;99.90;;;;;;5055946;28;20381;-66
2023/04/08 05:22:29;;;;;;;;;;;9.70;99.90;;;;;;5054808;28;19911;-67
2023/04/08 05:24:55;;;;;;;;;;;9.90;99.90;;;;;;5055016;28;20280;-66
2023/04/08 05:27:20;;;;;;;;;;;10.10;99.90;;;;;;5054850;28;20376;-66
2023/04/08 05:29:46;;;;;;;;;;;10.00;99.90;;;;;;5037506;28;19905;-67
2023/04/08 05:32:11;;;;;;;;;;;10.00;99.90;;;;;;5055701;28;20257;-66
2023/04/08 05:34:37;;;;;;;;;;;10.00;99.90;;;;;;5037463;28;19904;-67
2023/04/08 05:37:02;;;;;;;;;;;9.90;99.90;;;;;;5055620;28;19959;-67
2023/04/08 05:39:28;;;;;;;;;;;10.00;99.90;;;;;;5055705;28;19905;-67
2023/04/08 05:41:54;;;;;;;;;;;10.10;99.90;;;;;;5055461;28;19909;-67
2023/04/08 05:44:19;;;;;;;;;;;10.10;99.90;;;;;;5055618;28;20277;-67
2023/04/08 05:46:44;;;;;;;;;;;9.80;99.90;;;;;;5054512;28;20281;-66
2023/04/08 05:49:11;;;;;;;;;;;9.90;99.90;;;;;;5037604;28;19905;-68
2023/04/08 05:51:36;;;;;;;;;;;10.10;99.90;;;;;;5055320;28;19923;-67
2023/04/08 05:54:02;;;;;;;;;;;10.20;99.90;;;;;;5055657;28;19905;-66
2023/04/08 05:56:27;;;;;;;;;;;10.30;99.90;;;;;;5055263;28;19909;-66
2023/04/08 05:58:53;;;;;;;;;;;10.50;99.90;;;;;;5055772;28;20385;-66
2023/04/08 06:01:18;;;;;;;;;;;10.60;99.90;;;;;;5037276;28;19905;-67
2023/04/08 06:03:44;;;;;;;;;;;10.60;99.90;;;;;;5055391;28;19935;-66
2023/04/08 06:06:10;;;;;;;;;;;10.60;99.90;;;;;;5055879;28;19908;-66
2023/04/08 06:08:36;;;;;;;;;;;10.60;99.90;;;;;;5048916;28;20369;-66
2023/04/08 06:11:03;;;;;;;;;;;10.60;99.90;;;;;;5054600;28;19913;-67
2023/04/08 06:13:28;;;;;;;;;;;10.70;99.90;;;;;;5061713;28;19909;-68
2023/04/08 06:15:54;;;;;;;;;;;10.50;99.90;;;;;;5054824;28;19934;-66
2023/04/08 06:18:19;;;;;;;;;;;10.60;99.90;;;;;;5054999;28;19995;-68
2023/04/08 06:20:45;;;;;;;;;;;10.60;99.90;;;;;;5055108;28;20372;-66
2023/04/08 06:23:11;;;;;;;;;;;10.60;99.90;;;;;;5054721;28;20001;-67
2023/04/08 06:25:36;;;;;;;;;;;10.70;99.90;;;;;;5054440;28;19919;-67
2023/04/08 06:28:02;;;;;;;;;;;10.30;99.90;;;;;;5054916;28;19915;-66
2023/04/08 06:30:27;;;;;;;;;;;10.30;99.90;;;;;;5054536;28;19909;-66
2023/04/08 06:32:53;;;;;;;;;;;10.30;99.90;;;;;;5054494;28;20050;-67
2023/04/08 06:35:18;;;;;;;;;;;10.50;99.90;;;;;;5054570;28;20345;-66
2023/04/08 06:37:44;;;;;;;;;;;10.60;99.90;;;;;;5054663;28;20261;-66
2023/04/08 06:40:10;;;;;;;;;;;10.70;99.90;;;;;;5054482;28;20277;-66
2023/04/08 06:42:37;;;;;;;;;;;10.70;99.90;;;;;;5054964;28;19905;-66
2023/04/08 06:45:06;;;;;;;;;;;10.90;99.90;;;;;;5054490;28;19912;-66
2023/04/08 06:47:31;;;;;;;;;;;11.00;99.90;;;;;;5034902;28;19927;-66
2023/04/08 06:49:58;;;;;;;;;;;10.70;99.90;;;;;;5054995;28;19912;-67
2023/04/08 06:52:23;;;;;;;;;;;10.60;99.90;;;;;;5054986;28;19924;-66
2023/04/08 06:54:49;;;;;;;;;;;10.30;99.90;;;;;;5050774;28;20007;-66
2023/04/08 06:57:15;;;;;;;;;;;10.50;99.90;;;;;;5041873;28;19909;-66
2023/04/08 06:59:40;;;;;;;;;;;10.60;99.90;;;;;;5055347;28;19922;-67
2023/04/08 07:02:06;;;;;;;;;;;10.60;99.90;;;;;;5054594;28;20393;-66
2023/04/08 07:04:31;;;;;;;;;;;10.80;99.90;;;;;;5053124;28;19909;-65
2023/04/08 07:06:57;;;;;;;;;;;10.60;99.90;;;;;;5058375;28;19939;-67
2023/04/08 07:09:22;;;;;;;;;;;10.70;99.90;;;;;;5047971;28;19912;-67
2023/04/08 07:11:48;;;;;;;;;;;10.80;99.90;;;;;;5046468;28;19935;-66
2023/04/08 07:14:13;;;;;;;;;;;11.00;99.90;;;;;;5049514;28;19905;-66
2023/04/08 07:16:41;;;;;;;;;;;10.60;99.90;;;;;;5050687;28;20011;-67
2023/04/08 07:19:07;;;;;;;;;;;10.60;99.90;;;;;;5053981;28;19905;-67
2023/04/08 07:21:32;;;;;;;;;;;11.00;99.90;;;;;;5054396;28;20285;-66
2023/04/08 07:23:58;;;;;;;;;;;11.30;99.90;;;;;;5054087;28;20361;-66
2023/04/08 07:26:23;;;;;;;;;;;11.60;99.90;;;;;;5053805;28;19919;-66
2023/04/08 07:28:50;;;;;;;;;;;11.80;99.90;;;;;;5052861;28;19909;-67
2023/04/08 07:31:16;;;;;;;;;;;11.90;99.90;;;;;;5053203;28;19971;-67
2023/04/08 07:33:41;;;;;;;;;;;12.10;99.90;;;;;;5053099;28;20231;-67
2023/04/08 07:36:10;;;;;;;;;;;12.30;99.90;;;;;;5053589;28;19911;-67
2023/04/08 07:38:36;;;;;;;;;;;12.50;99.90;;;;;;5035466;28;19995;-67
2023/04/08 07:41:02;;;;;;;;;;;12.40;99.90;;;;;;5053633;28;20361;-67
2023/04/08 07:43:27;;;;;;;;;;;12.50;99.90;;;;;;5067647;22;20331;-68
2023/04/08 07:45:52;;;;;;;;;;;12.60;99.90;;;;;;5033521;28;19963;-67
2023/04/08 07:48:18;;;;;;;;;;;12.50;99.90;;;;;;5033907;28;19905;-68
2023/04/08 07:50:44;;;;;;;;;;;12.40;99.90;;;;;;5016180;28;19906;-68
2023/04/08 07:53:10;;;;;;;;;;;12.20;99.90;;;;;;5027796;28;20404;-68
2023/04/08 07:55:36;;;;;;;;;;;12.20;99.90;;;;;;5013948;28;19906;-68
2023/04/08 07:58:01;;;;;;;;;;;12.10;99.90;;;;;;5013724;28;20040;-68
2023/04/08 08:00:29;;;;;;;;;;;12.20;99.90;;;;;;5013786;28;19906;-67
2023/04/08 08:02:55;;;;;;;;;;;12.20;99.90;;;;;;5013929;28;19905;-68
2023/04/08 08:05:20;;;;;;;;;;;12.30;99.90;;;;;;4996006;28;19989;-68
2023/04/08 08:07:45;;;;;;;;;;;12.30;99.90;;;;;;4995654;28;19936;-68
2023/04/08 08:10:11;;;;;;;;;;;12.50;99.90;;;;;;5008187;28;20389;-69
2023/04/08 08:12:36;;;;;;;;;;;12.70;99.90;;;;;;4996888;28;19909;-68
2023/04/08 08:15:02;;;;;;;;;;;13.00;99.90;;;;;;5009585;28;20012;-68
2023/04/08 08:17:29;;;;;;;;;;;13.10;99.90;;;;;;5017137;28;20004;-68
2023/04/08 08:19:55;;;;;;;;;;;13.30;99.90;;;;;;5001854;28;19905;-68
2023/04/08 08:22:21;;;;;;;;;;;13.20;99.90;;;;;;4998146;28;20397;-69
2023/04/08 08:24:46;;;;;;;;;;;13.10;99.90;;;;;;4998479;28;19996;-69
2023/04/08 08:27:12;;;;;;;;;;;13.30;99.90;;;;;;4991206;28;20103;-69
2023/04/08 08:29:37;;;;;;;;;;;13.50;99.90;;;;;;4990717;28;19905;-68
2023/04/08 08:32:03;;;;;;;;;;;12.90;99.90;;;;;;4999968;28;19916;-69
2023/04/08 08:34:28;;;;;;;;;;;12.80;99.90;;;;;;4999862;28;19905;-65
2023/04/08 08:36:54;;;;;;;;;;;13.10;99.90;;;;;;5016903;28;19906;-67
2023/04/08 08:39:20;;;;;;;;;;;13.20;99.90;;;;;;5017010;28;19905;-69
2023/04/08 08:41:46;;;;;;;;;;;13.70;99.90;;;;;;4999596;28;20289;-70
2023/04/08 08:44:11;;;;;;;;;;;14.00;99.90;;;;;;5016795;28;20409;-69
2023/04/08 08:46:42;;;;;;;;;;;13.40;99.90;;;;;;4999799;28;19971;-68
2023/04/08 08:49:07;;;;;;;;;;;14.20;99.90;;;;;;5016812;28;20362;-69
2023/04/08 08:51:33;;;;;;;;;;;15.90;99.90;;;;;;5017300;28;19910;-68
2023/04/08 08:54:02;;;;;;;;;;;17.70;98.20;;;;;;4999317;28;19960;-68
2023/04/08 08:56:27;;;;;;;;;;;19.50;94.70;;;;;;5016837;28;19905;-70
2023/04/08 08:58:53;;;;;;;;;;;20.90;91.30;;;;;;5016964;28;19909;-69
2023/04/08 09:01:39;;;;;;;;;;;21.60;88.60;;;;;;5017682;28;19996;-71
2023/04/08 09:04:08;;;;;;;;;;;22.70;83.40;;;;;;4994817;28;19940;-70
2023/04/08 09:06:35;;;;;;;;;;;22.20;81.90;;;;;;4984150;28;19914;-69
2023/04/08 09:09:01;;;;;;;;;;;22.30;80.10;;;;;;5017357;28;19909;-69
2023/04/08 09:11:27;;;;;;;;;;;22.50;78.60;;;;;;5017300;28;19905;-69
2023/04/08 09:13:52;;;;;;;;;;;23.40;76.50;;;;;;4999398;28;20336;-69
2023/04/08 09:16:18;;;;;;;;;;;23.40;75.80;;;;;;5011827;28;19914;-67
2023/04/08 09:18:45;;;;;;;;;;;23.50;75.30;;;;;;5000775;28;19905;-69
2023/04/08 09:21:18;;;;;;;;;;;23.10;74.30;;;;;;4978521;28;19960;-69
2023/04/08 09:23:43;;;;;;;;;;;21.10;79.90;;;;;;5000432;28;19975;-69
2023/04/08 09:26:22;;;;;;;;;;;21.00;79.40;;;;;;5012569;28;20374;-69
2023/04/08 09:28:58;;;;;;;;;;;20.30;80.20;;;;;;4998749;28;19952;-69
2023/04/08 09:31:26;;;;;;;;;;;19.00;83.00;;;;;;5016231;28;20385;-67
2023/04/08 09:33:53;;;;;;;;;;;18.00;85.70;;;;;;4998420;28;19905;-67
2023/04/08 09:36:19;;;;;;;;;;;18.90;84.70;;;;;;5016384;28;20023;-68
2023/04/08 09:38:45;;;;;;;;;;;20.80;80.90;;;;;;5016229;28;20377;-69
2023/04/08 09:41:15;;;;;;;;;;;21.40;78.40;;;;;;4998464;28;20000;-69
2023/04/08 09:43:42;;;;;;;;;;;21.50;78.00;;;;;;5015528;28;19914;-70
2023/04/08 09:46:10;;;;;;;;;;;20.90;79.30;;;;;;4998554;28;19906;-69
2023/04/08 09:48:39;;;;;;;;;;;21.10;79.80;;;;;;5017495;28;19906;-69
2023/04/08 09:51:05;;;;;;;;;;;22.80;76.70;;;;;;5018972;28;19939;-68
2023/04/08 09:53:35;;;;;;;;;;;22.80;74.50;;;;;;5016269;28;20362;-68
2023/04/08 09:56:01;;;;;;;;;;;21.90;74.50;;;;;;5016283;28;19951;-67
2023/04/08 09:58:28;;;;;;;;;;;20.70;76.30;;;;;;5016381;28;19905;-68
2023/04/08 10:00:53;;;;;;;;;;;20.30;77.30;;;;;;4998118;28;19909;-69
2023/04/08 10:03:28;;;;;;;;;;;21.80;73.50;;;;;;4998867;28;19912;-68
2023/04/08 10:05:55;;;;;;;;;;;22.40;70.20;;;;;;4994813;28;20282;-69
2023/04/08 10:08:20;;;;;;;;;;;21.90;70.10;;;;;;4994134;28;19912;-70
2023/04/08 10:10:46;;;;;;;;;;;20.80;71.10;;;;;;5008965;28;20354;-70
2023/04/08 10:13:12;;;;;;;;;;;19.80;73.50;;;;;;5013909;28;19996;-68
2023/04/08 10:15:39;;;;;;;;;;;19.10;74.40;;;;;;5014938;28;20017;-68
2023/04/08 10:18:08;;;;;;;;;;;18.40;73.10;;;;;;5007400;28;19912;-68
2023/04/08 10:20:33;;;;;;;;;;;18.30;74.50;;;;;;4997669;28;20310;-68
2023/04/08 10:22:59;;;;;;;;;;;17.60;76.80;;;;;;5002496;28;19939;-72
2023/04/08 10:25:25;;;;;;;;;;;17.70;77.40;;;;;;5006191;28;19931;-68
2023/04/08 10:27:50;;;;;;;;;;;18.10;77.60;;;;;;5006751;28;20414;-67
2023/04/08 10:30:25;;;;;;;;;;;18.30;76.80;;;;;;4993653;28;20066;-67
2023/04/08 10:32:51;;;;;;;;;;;18.50;76.50;;;;;;4995568;28;19952;-68
2023/04/08 10:35:16;;;;;;;;;;;18.10;75.60;;;;;;4994090;28;20366;-67
2023/04/08 10:37:42;;;;;;;;;;;18.00;77.70;;;;;;4995098;28;19967;-69
2023/04/08 10:40:17;;;;;;;;;;;19.20;76.10;;;;;;4995719;28;19951;-68
2023/04/08 10:42:43;;;;;;;;;;;19.60;74.20;;;;;;4994836;28;19922;-67
2023/04/08 10:45:08;;;;;;;;;;;18.00;75.30;;;;;;4993610;28;19913;-68
2023/04/08 10:47:34;;;;;;;;;;;18.30;76.60;;;;;;4995053;28;19910;-68
2023/04/08 10:50:01;;;;;;;;;;;18.60;75.50;;;;;;5000060;28;19913;-68
2023/04/08 10:52:26;;;;;;;;;;;18.60;73.40;;;;;;5014490;28;19996;-68
2023/04/08 10:54:52;;;;;;;;;;;17.60;74.70;;;;;;5014268;28;19983;-69
2023/04/08 10:57:24;;;;;;;;;;;18.10;76.40;;;;;;4997220;28;19905;-68
2023/04/08 10:59:50;;;;;;;;;;;18.80;76.10;;;;;;4997051;28;19913;-71
2023/04/08 11:02:15;;;;;;;;;;;19.00;75.60;;;;;;5015003;28;20278;-70
2023/04/08 11:04:41;;;;;;;;;;;18.60;76.20;;;;;;4996978;28;19917;-69
2023/04/08 11:07:08;;;;;;;;;;;18.10;76.90;;;;;;5014186;28;19913;-70
2023/04/08 11:09:33;;;;;;;;;;;17.60;78.00;;;;;;5014416;28;19940;-69
2023/04/08 11:12:00;;;;;;;;;;;17.30;78.80;;;;;;5014533;28;19905;-70
2023/04/08 11:14:26;;;;;;;;;;;17.00;79.50;;;;;;4996385;28;19905;-70
2023/04/08 11:16:51;;;;;;;;;;;16.30;81.60;;;;;;4996526;28;20321;-70
2023/04/08 11:19:17;;;;;;;;;;;15.70;83.00;;;;;;4996615;28;20354;-70
2023/04/08 11:21:43;;;;;;;;;;;15.60;82.70;;;;;;4995051;28;19910;-70
2023/04/08 11:24:10;;;;;;;;;;;15.80;81.80;;;;;;4994592;28;20327;-68
2023/04/08 11:26:36;;;;;;;;;;;15.60;80.50;;;;;;4977123;28;20004;-69
2023/04/08 11:29:02;;;;;;;;;;;15.50;78.00;;;;;;4977788;28;19945;-69
2023/04/08 11:31:28;;;;;;;;;;;15.40;76.30;;;;;;4994441;28;19906;-68
2023/04/08 11:33:57;;;;;;;;;;;15.10;75.40;;;;;;4994735;28;19913;-69
2023/04/08 11:36:22;;;;;;;;;;;15.00;75.80;;;;;;4994291;28;19928;-70
2023/04/08 11:38:48;;;;;;;;;;;15.00;75.40;;;;;;5011064;28;20362;-69
2023/04/08 11:41:14;;;;;;;;;;;15.00;74.40;;;;;;5013928;28;19913;-70
2023/04/08 11:43:49;;;;;;;;;;;15.00;72.60;;;;;;4996679;28;20019;-71
2023/04/08 11:46:16;;;;;;;;;;;14.80;72.60;;;;;;4995571;28;19913;-70
2023/04/08 11:48:55;;;;;;;;;;;14.70;73.80;;;;;;4996682;28;19905;-69
2023/04/08 11:51:21;;;;;;;;;;;14.60;72.50;;;;;;5014805;28;19913;-70
2023/04/08 11:53:48;;;;;;;;;;;14.50;73.80;;;;;;5009892;28;19909;-70
2023/04/08 11:56:17;;;;;;;;;;;14.50;75.20;;;;;;5001775;28;19940;-70
2023/04/08 11:58:42;;;;;;;;;;;14.70;77.10;;;;;;4995522;28;19910;-70
2023/04/08 12:01:08;;;;;;;;;;;14.70;78.30;;;;;;4996576;28;19905;-70
2023/04/08 12:03:33;;;;;;;;;;;14.60;79.30;;;;;;5013769;28;19905;-69
2023/04/08 12:05:59;;;;;;;;;;;14.80;79.40;;;;;;4996060;28;19905;-73
2023/04/08 12:08:24;;;;;;;;;;;15.00;78.30;;;;;;4996077;28;19940;-69
2023/04/08 12:10:50;;;;;;;;;;;15.20;78.00;;;;;;5014437;28;19905;-69
2023/04/08 12:13:15;;;;;;;;;;;15.30;76.90;;;;;;5013690;28;19905;-70
2023/04/08 12:15:41;;;;;;;;;;;15.20;79.00;;;;;;4996761;28;19906;-70
2023/04/08 12:18:06;;;;;;;;;;;15.20;78.70;;;;;;4996033;28;19951;-69
2023/04/08 12:20:32;;;;;;;;;;;15.30;78.80;;;;;;5014010;28;19906;-69
2023/04/08 12:22:57;;;;;;;;;;;15.50;79.60;;;;;;5013621;28;20259;-69
2023/04/08 12:25:22;;;;;;;;;;;15.60;81.20;;;;;;5013834;28;19910;-69
2023/04/08 12:27:48;;;;;;;;;;;15.60;81.40;;;;;;5013439;28;19948;-69
2023/04/08 12:30:13;;;;;;;;;;;15.80;82.30;;;;;;4995653;28;19917;-70
2023/04/08 12:32:40;;;;;;;;;;;15.80;81.40;;;;;;4995777;28;20030;-70
2023/04/08 12:35:05;;;;;;;;;;;15.80;81.20;;;;;;4996016;28;20251;-70
2023/04/08 12:37:32;;;;;;;;;;;15.70;80.50;;;;;;5013376;28;19928;-71
2023/04/08 12:39:57;;;;;;;;;;;15.60;80.00;;;;;;5013552;28;19906;-69
2023/04/08 12:42:23;;;;;;;;;;;15.60;79.10;;;;;;5013370;28;19960;-69
2023/04/08 12:44:48;;;;;;;;;;;15.60;79.80;;;;;;5013085;28;19914;-70
2023/04/08 12:47:14;;;;;;;;;;;15.50;80.30;;;;;;4995848;28;19916;-69
2023/04/08 12:49:39;;;;;;;;;;;15.50;79.20;;;;;;5011126;28;19905;-69
2023/04/08 12:52:05;;;;;;;;;;;15.50;79.40;;;;;;4992815;28;19913;-71
2023/04/08 12:54:31;;;;;;;;;;;15.40;76.90;;;;;;4976833;28;19905;-73
2023/04/08 12:56:56;;;;;;;;;;;15.30;77.60;;;;;;4996303;28;19905;-72
2023/04/08 12:59:22;;;;;;;;;;;15.50;77.80;;;;;;4979502;28;19927;-68
2023/04/08 13:01:47;;;;;;;;;;;15.60;77.30;;;;;;5004498;28;19906;-69
2023/04/08 13:04:13;;;;;;;;;;;15.80;76.60;;;;;;4998788;28;19984;-69
2023/04/08 13:06:38;;;;;;;;;;;15.80;77.20;;;;;;5016540;28;19910;-70
2023/04/08 13:09:04;;;;;;;;;;;15.50;76.70;;;;;;4999415;28;19905;-69
2023/04/08 13:11:29;;;;;;;;;;;15.40;76.70;;;;;;4999478;28;19948;-69
2023/04/08 13:13:55;;;;;;;;;;;15.30;76.40;;;;;;4999413;28;19929;-68
2023/04/08 13:16:20;;;;;;;;;;;15.10;76.90;;;;;;4999462;28;19912;-70
2023/04/08 13:18:46;;;;;;;;;;;15.00;77.30;;;;;;4999411;28;20266;-70
2023/04/08 13:21:11;;;;;;;;;;;15.10;77.50;;;;;;4998859;28;19905;-69
2023/04/08 13:23:37;;;;;;;;;;;15.10;77.70;;;;;;4999476;28;19905;-70
2023/04/08 13:26:03;;;;;;;;;;;15.20;77.10;;;;;;5017354;28;19916;-70
2023/04/08 13:28:28;;;;;;;;;;;15.20;77.40;;;;;;4999605;28;19906;-70
2023/04/08 13:30:54;;;;;;;;;;;15.40;77.30;;;;;;4999406;28;20040;-69
2023/04/08 13:33:21;;;;;;;;;;;15.50;76.50;;;;;;4999250;28;19905;-71
2023/04/08 13:35:46;;;;;;;;;;;15.50;75.20;;;;;;4999986;28;20361;-70
2023/04/08 13:38:12;;;;;;;;;;;15.60;74.30;;;;;;5016604;28;20302;-70
2023/04/08 13:40:38;;;;;;;;;;;15.70;73.00;;;;;;4999466;28;19905;-70
2023/04/08 13:43:04;;;;;;;;;;;15.60;73.80;;;;;;5043281;22;19933;-70
2023/04/08 13:45:29;;;;;;;;;;;15.60;74.70;;;;;;5044385;28;19960;-68
2023/04/08 13:47:55;;;;;;;;;;;15.50;74.10;;;;;;5052614;28;20305;-69
2023/04/08 13:50:21;;;;;;;;;;;15.50;74.50;;;;;;5048488;28;19904;-69
2023/04/08 13:52:46;;;;;;;;;;;15.20;75.00;;;;;;5029417;28;19909;-69
2023/04/08 13:55:12;;;;;;;;;;;14.90;76.50;;;;;;5041149;28;19913;-68
2023/04/08 13:57:37;;;;;;;;;;;15.00;74.70;;;;;;5040259;28;19944;-68
2023/04/08 14:00:03;;;;;;;;;;;14.80;75.80;;;;;;5020887;28;19916;-69
2023/04/08 14:02:29;;;;;;;;;;;14.50;76.30;;;;;;5029037;28;19905;-68
2023/04/08 14:04:55;;;;;;;;;;;14.50;77.20;;;;;;5014266;28;19916;-68
2023/04/08 14:07:20;;;;;;;;;;;14.40;77.90;;;;;;5016499;28;20413;-69
2023/04/08 14:09:46;;;;;;;;;;;14.60;78.70;;;;;;5030748;28;19919;-69
2023/04/08 14:12:11;;;;;;;;;;;14.80;78.60;;;;;;5026114;28;19905;-70